createdAt,value
2022-11-05T00:00:15.351Z,1.00
2022-11-05T00:03:01.042Z,1.00
2022-11-05T00:05:46.585Z,1.00
2022-11-05T00:08:32.493Z,1.00
2022-11-05T00:10:59.349Z,1.00
2022-11-05T00:13:44.660Z,1.00
2022-11-05T00:16:40.686Z,1.00
2022-11-05T00:19:07.515Z,1.00
2022-11-05T00:21:54.783Z,1.00
2022-11-05T00:24:40.766Z,1.00
2022-11-05T00:27:08.024Z,1.00
2022-11-05T00:29:35.019Z,1.00
2022-11-05T00:32:02.102Z,1.00
2022-11-05T00:34:29.210Z,1.00
2022-11-05T00:36:56.362Z,1.00
2022-11-05T00:39:23.148Z,1.00
2022-11-05T00:42:09.858Z,1.00
2022-11-05T00:44:55.326Z,1.00
2022-11-05T00:47:40.660Z,1.00
2022-11-05T00:50:07.756Z,1.00
2022-11-05T00:52:53.111Z,1.00
2022-11-05T00:55:19.966Z,1.00
2022-11-05T00:57:46.797Z,1.00
2022-11-05T01:00:14.276Z,1.00
2022-11-05T01:02:41.213Z,1.00
2022-11-05T01:05:08.655Z,1.00
2022-11-05T01:07:35.430Z,1.00
2022-11-05T01:10:02.260Z,1.00
2022-11-05T01:12:30.407Z,1.00
2022-11-05T01:14:57.170Z,1.00
2022-11-05T01:17:24.068Z,1.00
2022-11-05T01:19:51.300Z,1.00
2022-11-05T01:22:18.070Z,1.00
2022-11-05T01:24:44.889Z,1.00
2022-11-05T01:27:11.603Z,1.00
2022-11-05T01:29:38.352Z,1.00
2022-11-05T01:32:05.365Z,1.00
2022-11-05T01:34:32.275Z,1.00
2022-11-05T01:36:59.067Z,1.00
2022-11-05T01:39:25.899Z,1.00
2022-11-05T01:41:52.628Z,1.00
2022-11-05T01:44:57.166Z,1.00
2022-11-05T01:47:42.638Z,1.00
2022-11-05T01:50:31.517Z,1.00
2022-11-05T01:53:03.877Z,1.00
2022-11-05T01:55:35.417Z,1.00
2022-11-05T01:58:06.161Z,1.00
2022-11-05T02:00:34.489Z,1.00
2022-11-05T02:03:02.205Z,1.00
2022-11-05T02:05:29.463Z,1.00
2022-11-05T02:07:56.569Z,1.00
2022-11-05T02:10:24.209Z,1.00
2022-11-05T02:12:51.217Z,1.00
2022-11-05T02:15:39.948Z,1.00
2022-11-05T02:18:17.603Z,1.00
2022-11-05T02:21:00.091Z,1.00
2022-11-05T02:23:48.421Z,1.00
2022-11-05T02:26:51.729Z,1.00
2022-11-05T02:29:49.461Z,1.00
2022-11-05T02:32:41.528Z,1.00
2022-11-05T02:35:46.476Z,1.00
2022-11-05T02:38:28.884Z,1.00
2022-11-05T02:41:18.400Z,1.00
2022-11-05T02:44:16.972Z,1.00
2022-11-05T02:47:05.834Z,1.00
2022-11-05T02:49:45.005Z,1.00
2022-11-05T02:52:21.174Z,1.00
2022-11-05T02:54:59.427Z,1.00
2022-11-05T02:57:29.173Z,1.00
2022-11-05T03:00:28.374Z,1.00
2022-11-05T03:02:55.390Z,1.00
2022-11-05T03:05:29.435Z,1.00
2022-11-05T03:08:08.122Z,1.00
2022-11-05T03:11:11.548Z,1.00
2022-11-05T03:14:18.824Z,1.00
2022-11-05T03:17:00.040Z,1.00
2022-11-05T03:19:35.575Z,1.00
2022-11-05T03:22:17.604Z,1.00
2022-11-05T03:24:52.157Z,1.00
2022-11-05T03:27:23.841Z,1.00
2022-11-05T03:29:57.242Z,1.00
2022-11-05T03:32:27.314Z,1.00
2022-11-05T03:35:02.199Z,1.00
2022-11-05T03:37:33.864Z,1.00
2022-11-05T03:40:04.128Z,1.00
2022-11-05T03:42:35.676Z,1.00
2022-11-05T03:45:09.540Z,1.00
2022-11-05T03:47:40.936Z,1.00
2022-11-05T03:50:12.935Z,1.00
2022-11-05T03:52:47.724Z,1.00
2022-11-05T03:55:15.180Z,1.00
2022-11-05T03:57:47.165Z,1.00
2022-11-05T04:00:14.186Z,1.00
2022-11-05T04:02:41.970Z,1.00
2022-11-05T04:05:09.197Z,1.00
2022-11-05T04:07:54.844Z,1.00
2022-11-05T04:10:40.485Z,1.00
2022-11-05T04:13:25.964Z,1.00
2022-11-05T04:16:13.114Z,1.00
2022-11-05T04:18:40.573Z,1.00
2022-11-05T04:21:26.693Z,1.00
2022-11-05T04:24:08.624Z,1.00
2022-11-05T04:26:47.422Z,1.00
2022-11-05T04:29:32.626Z,1.00
2022-11-05T04:31:59.355Z,1.00
2022-11-05T04:34:26.137Z,1.00
2022-11-05T04:36:53.319Z,1.00
2022-11-05T04:39:20.926Z,1.00
2022-11-05T04:41:48.793Z,1.00
2022-11-05T04:44:16.309Z,1.00
2022-11-05T04:46:43.573Z,1.00
2022-11-05T04:49:10.444Z,1.00
2022-11-05T04:51:37.195Z,1.00
2022-11-05T04:54:04.076Z,1.00
2022-11-05T04:56:30.968Z,1.00
2022-11-05T04:58:57.860Z,1.00
2022-11-05T05:01:25.656Z,1.00
2022-11-05T05:03:54.028Z,1.00
2022-11-05T05:06:21.722Z,1.00
2022-11-05T05:08:50.310Z,1.00
2022-11-05T05:11:20.197Z,1.00
2022-11-05T05:13:47.812Z,1.00
2022-11-05T05:16:23.643Z,1.00
2022-11-05T05:18:50.817Z,1.00
2022-11-05T05:21:37.791Z,1.00
2022-11-05T05:24:06.175Z,1.00
2022-11-05T05:26:33.005Z,1.00
2022-11-05T05:28:59.719Z,1.00
2022-11-05T05:31:26.500Z,1.00
2022-11-05T05:33:54.455Z,1.00
2022-11-05T05:36:22.460Z,1.00
2022-11-05T05:38:49.545Z,1.00
2022-11-05T05:41:16.835Z,1.00
2022-11-05T05:43:43.864Z,1.00
2022-11-05T05:46:12.877Z,1.00
2022-11-05T05:48:40.506Z,1.00
2022-11-05T05:51:09.793Z,1.00
2022-11-05T05:53:37.807Z,1.00
2022-11-05T05:56:05.555Z,1.00
2022-11-05T05:58:36.158Z,1.00
2022-11-05T06:01:18.946Z,1.00
2022-11-05T06:03:47.432Z,1.00
2022-11-05T06:06:15.742Z,1.00
2022-11-05T06:08:43.103Z,1.00
2022-11-05T06:11:09.976Z,1.00
2022-11-05T06:13:37.456Z,1.00
2022-11-05T06:16:06.723Z,1.00
2022-11-05T06:18:34.480Z,1.00
2022-11-05T06:21:06.671Z,1.00
2022-11-05T06:23:34.936Z,1.00
2022-11-05T06:26:06.817Z,1.00
2022-11-05T06:28:34.659Z,1.00
2022-11-05T06:31:02.129Z,1.00
2022-11-05T06:33:29.240Z,1.00
2022-11-05T06:35:59.414Z,1.00
2022-11-05T06:38:26.313Z,1.00
2022-11-05T06:40:53.276Z,1.00
2022-11-05T06:43:20.054Z,1.00
2022-11-05T06:45:46.771Z,1.00
2022-11-05T06:48:13.545Z,1.00
2022-11-05T06:50:44.152Z,1.00
2022-11-05T06:53:11.507Z,1.00
2022-11-05T06:55:38.587Z,1.00
2022-11-05T06:58:05.588Z,1.00
2022-11-05T07:00:32.815Z,1.00
2022-11-05T07:03:07.275Z,1.00
2022-11-05T07:05:37.543Z,1.00
2022-11-05T07:08:04.502Z,1.00
2022-11-05T07:10:31.387Z,1.00
2022-11-05T07:12:58.134Z,1.00
2022-11-05T07:15:24.954Z,1.00
2022-11-05T07:17:57.388Z,1.00
2022-11-05T07:20:24.141Z,1.00
2022-11-05T07:22:51.144Z,1.00
2022-11-05T07:25:18.027Z,1.00
2022-11-05T07:27:44.854Z,1.00
2022-11-05T07:30:11.919Z,1.00
2022-11-05T07:32:40.218Z,1.00
2022-11-05T07:35:08.869Z,1.00
2022-11-05T07:37:46.647Z,1.00
2022-11-05T07:40:14.898Z,1.00
2022-11-05T07:42:46.380Z,1.00
2022-11-05T07:45:13.563Z,1.00
2022-11-05T07:47:48.956Z,1.00
2022-11-05T07:50:17.453Z,1.00
2022-11-05T07:52:44.729Z,1.00
2022-11-05T07:55:13.302Z,1.00
2022-11-05T07:57:47.601Z,1.00
2022-11-05T08:00:17.230Z,1.00
2022-11-05T08:02:44.298Z,1.00
2022-11-05T08:05:11.236Z,1.00
2022-11-05T08:07:38.092Z,1.00
2022-11-05T08:10:05.345Z,1.00
2022-11-05T08:12:32.660Z,1.00
2022-11-05T08:14:59.602Z,1.00
2022-11-05T08:17:26.414Z,1.00
2022-11-05T08:19:53.252Z,1.00
2022-11-05T08:22:20.078Z,1.00
2022-11-05T08:24:46.866Z,1.00
2022-11-05T08:27:14.061Z,1.00
2022-11-05T08:29:40.790Z,1.00
2022-11-05T08:32:07.619Z,1.00
2022-11-05T08:34:34.393Z,1.00
2022-11-05T08:37:02.035Z,1.00
2022-11-05T08:39:29.021Z,1.00
2022-11-05T08:41:55.842Z,1.00
2022-11-05T08:44:22.881Z,1.00
2022-11-05T08:46:49.846Z,1.00
2022-11-05T08:49:16.829Z,1.00
2022-11-05T08:51:44.835Z,1.00
2022-11-05T08:54:11.640Z,1.00
2022-11-05T09:51:24.504Z,1.00
2022-11-05T09:53:51.654Z,1.00
2022-11-05T09:56:30.711Z,1.00
2022-11-05T09:59:14.040Z,1.00
2022-11-05T10:01:42.577Z,1.00
2022-11-05T10:04:16.355Z,1.00
2022-11-05T10:06:51.705Z,1.00
2022-11-05T10:09:25.297Z,1.00
2022-11-05T10:12:02.679Z,14.40
2022-11-05T10:14:36.513Z,41.50
2022-11-05T10:17:14.508Z,55.60
2022-11-05T10:19:47.598Z,68.90
2022-11-05T10:22:16.756Z,61.00
2022-11-05T10:24:47.198Z,52.90
2022-11-05T10:27:23.268Z,40.30
2022-11-05T10:29:50.513Z,17.00
2022-11-05T10:32:34.828Z,2.40
2022-11-05T10:35:04.388Z,1.00
2022-11-05T10:37:34.977Z,1.00
2022-11-05T10:40:26.078Z,1.00
2022-11-05T10:43:02.370Z,1.00
2022-11-05T10:45:42.537Z,1.00
2022-11-05T10:48:44.392Z,1.00
2022-11-05T10:51:11.711Z,1.00
2022-11-05T10:53:39.820Z,1.00
2022-11-05T10:56:32.349Z,1.00
2022-11-05T10:59:00.714Z,1.00
2022-11-05T11:01:28.616Z,1.00
2022-11-05T11:04:20.429Z,1.00
2022-11-05T11:06:53.757Z,1.00
2022-11-05T11:09:33.006Z,1.00
2022-11-05T11:12:27.678Z,1.00
2022-11-05T11:15:27.267Z,1.00
2022-11-05T11:17:55.414Z,1.00
2022-11-05T11:20:32.864Z,1.00
2022-11-05T11:23:16.952Z,1.00
2022-11-05T11:26:03.860Z,1.00
2022-11-05T11:28:40.777Z,1.00
2022-11-05T11:31:13.385Z,1.00
2022-11-05T11:33:44.507Z,1.00
2022-11-05T11:36:12.713Z,1.00
2022-11-05T11:38:40.142Z,1.00
2022-11-05T11:41:27.713Z,1.00
2022-11-05T11:43:59.411Z,1.00
2022-11-05T11:46:30.094Z,1.00
2022-11-05T11:48:56.816Z,1.00
2022-11-05T11:51:32.459Z,1.00
2022-11-05T11:54:00.595Z,1.00
2022-11-05T11:56:28.985Z,1.00
2022-11-05T11:58:57.532Z,1.00
2022-11-05T12:01:33.524Z,1.00
2022-11-05T12:04:25.485Z,1.00
2022-11-05T12:07:01.140Z,1.00
2022-11-05T12:09:33.350Z,1.00
2022-11-05T12:12:11.658Z,1.00
2022-11-05T12:14:52.298Z,1.00
2022-11-05T12:17:43.364Z,1.00
2022-11-05T12:20:19.260Z,1.00
2022-11-05T12:23:11.116Z,1.00
2022-11-05T12:25:46.140Z,1.00
2022-11-05T12:28:15.782Z,1.00
2022-11-05T12:31:17.950Z,1.00
2022-11-05T12:34:03.106Z,1.00
2022-11-05T12:36:41.159Z,1.00
2022-11-05T12:39:43.838Z,1.00
2022-11-05T12:42:29.176Z,1.00
2022-11-05T12:45:23.575Z,1.00
2022-11-05T12:48:22.038Z,1.00
2022-11-05T12:51:02.312Z,1.00
2022-11-05T12:53:34.971Z,1.00
2022-11-05T12:56:12.592Z,1.00
2022-11-05T12:58:48.680Z,1.00
2022-11-05T13:01:23.228Z,1.00
2022-11-05T13:03:57.434Z,1.00
2022-11-05T13:06:35.238Z,1.00
2022-11-05T13:09:12.052Z,1.00
2022-11-05T13:12:02.207Z,1.00
2022-11-05T13:14:53.902Z,1.00
2022-11-05T13:17:24.641Z,1.00
2022-11-05T13:20:17.747Z,1.00
2022-11-05T13:23:31.148Z,1.00
2022-11-05T13:26:10.342Z,1.00
2022-11-05T13:29:02.519Z,1.00
2022-11-05T13:31:37.638Z,1.00
2022-11-05T13:34:12.120Z,1.00
2022-11-05T13:36:57.441Z,1.00
2022-11-05T13:39:32.127Z,1.00
2022-11-05T13:42:36.965Z,1.00
2022-11-05T13:45:25.298Z,1.00
2022-11-05T13:48:14.127Z,1.00
2022-11-05T13:51:06.757Z,1.00
2022-11-05T13:53:38.727Z,1.00
2022-11-05T13:56:23.766Z,1.00
2022-11-05T13:59:26.519Z,1.00
2022-11-05T14:01:58.891Z,1.00
2022-11-05T14:04:28.537Z,1.00
2022-11-05T14:07:05.191Z,1.00
2022-11-05T14:09:34.790Z,1.00
2022-11-05T14:12:02.201Z,1.00
2022-11-05T14:14:33.458Z,1.00
2022-11-05T14:17:09.096Z,1.00
2022-11-05T14:19:56.229Z,1.00
2022-11-05T14:22:37.781Z,1.00
2022-11-05T14:25:19.924Z,1.00
2022-11-05T14:27:57.920Z,1.00
2022-11-05T14:30:41.318Z,1.00
2022-11-05T14:33:26.481Z,1.00
2022-11-05T14:36:13.799Z,1.00
2022-11-05T14:38:48.754Z,1.00
2022-11-05T14:41:15.936Z,1.00
2022-11-05T14:43:53.591Z,1.00
2022-11-05T14:46:20.868Z,1.00
2022-11-05T14:48:52.814Z,1.00
2022-11-05T14:51:44.212Z,1.00
2022-11-05T14:54:20.138Z,1.00
2022-11-05T14:56:58.675Z,1.00
2022-11-05T14:59:25.402Z,1.00
2022-11-05T15:01:56.984Z,1.00
2022-11-05T15:04:33.734Z,1.00
2022-11-05T15:07:03.453Z,1.00
2022-11-05T15:10:18.459Z,1.00
2022-11-05T15:12:50.495Z,1.00
2022-11-05T15:15:27.730Z,1.00
2022-11-05T15:17:58.287Z,20.30
2022-11-05T15:20:38.848Z,9.70
2022-11-05T15:23:19.003Z,21.80
2022-11-05T15:25:54.817Z,19.50
2022-11-05T15:28:42.789Z,21.60
2022-11-05T15:31:12.516Z,21.60
2022-11-05T15:33:40.972Z,21.60
2022-11-05T15:36:27.236Z,39.40
2022-11-05T15:39:22.841Z,41.30
2022-11-05T15:41:41.220Z,39.20
2022-11-05T15:44:30.718Z,38.30
2022-11-05T15:47:20.776Z,38.20
2022-11-05T15:49:52.522Z,41.80
2022-11-05T15:52:21.901Z,38.10
2022-11-05T15:55:17.219Z,56.20
2022-11-05T15:57:50.456Z,51.60
2022-11-05T16:00:30.007Z,60.40
2022-11-05T16:03:07.693Z,55.90
2022-11-05T16:05:41.167Z,64.10
2022-11-05T16:08:18.221Z,75.00
2022-11-05T16:10:50.329Z,75.10
2022-11-05T16:13:36.613Z,70.40
2022-11-05T16:16:24.988Z,78.50
2022-11-05T16:18:52.770Z,72.00
2022-11-05T16:21:22.787Z,67.10
2022-11-05T16:23:49.622Z,78.60
2022-11-05T16:29:46.231Z,93.20
2022-11-05T16:32:24.168Z,90.60
2022-11-05T16:35:01.538Z,92.90
2022-11-05T16:37:40.005Z,97.40
2022-11-05T16:40:18.679Z,96.20
2022-11-05T16:42:48.461Z,98.90
2022-11-05T16:45:17.148Z,97.10
2022-11-05T16:47:45.179Z,99.00
2022-11-05T16:50:18.853Z,99.90
2022-11-05T16:52:47.016Z,97.80
2022-11-05T16:55:15.652Z,99.90
2022-11-05T16:57:44.604Z,99.90
2022-11-05T17:00:15.699Z,99.90
2022-11-05T17:02:43.090Z,99.90
2022-11-05T17:05:29.888Z,98.40
2022-11-05T17:07:57.676Z,96.80
2022-11-05T17:10:25.935Z,98.60
2022-11-05T17:12:53.329Z,99.90
2022-11-05T17:15:22.982Z,99.50
2022-11-05T17:17:50.327Z,93.60
2022-11-05T17:20:36.770Z,95.50
2022-11-05T17:23:07.752Z,96.10
2022-11-05T17:25:34.691Z,99.90
2022-11-05T17:28:01.934Z,97.00
2022-11-05T17:30:28.755Z,93.50
2022-11-05T17:32:55.762Z,95.30
2022-11-05T17:35:22.869Z,98.10
2022-11-05T17:37:50.026Z,99.90
2022-11-05T17:40:22.709Z,99.90
2022-11-05T17:42:50.885Z,99.90
2022-11-05T17:45:18.707Z,99.90
2022-11-05T17:47:45.972Z,99.90
2022-11-05T17:50:14.396Z,99.90
2022-11-05T17:52:41.131Z,99.90
2022-11-05T17:55:16.119Z,99.80
2022-11-05T17:57:50.904Z,99.90
2022-11-05T18:00:20.756Z,99.90
2022-11-05T18:02:49.563Z,99.90
2022-11-05T18:05:20.733Z,99.90
2022-11-05T18:07:47.856Z,99.90
2022-11-05T18:10:15.894Z,99.00
2022-11-05T18:12:43.362Z,95.70
2022-11-05T18:15:10.703Z,96.60
2022-11-05T18:17:38.203Z,99.10
2022-11-05T18:20:10.707Z,95.90
2022-11-05T18:22:40.185Z,99.90
2022-11-05T18:25:08.170Z,99.90
2022-11-05T18:27:35.650Z,99.90
2022-11-05T18:30:02.627Z,98.50
2022-11-05T18:32:29.524Z,98.60
2022-11-05T18:34:56.285Z,99.90
2022-11-05T18:37:23.091Z,99.90
2022-11-05T18:39:54.094Z,99.90
2022-11-05T18:42:21.659Z,96.40
2022-11-05T18:44:49.073Z,97.40
2022-11-05T18:47:15.848Z,93.50
2022-11-05T18:49:43.172Z,99.90
2022-11-05T18:52:10.152Z,97.50
2022-11-05T18:54:36.996Z,98.40
2022-11-05T18:57:03.893Z,99.90
2022-11-05T18:59:37.819Z,99.90
2022-11-05T19:02:06.031Z,99.90
2022-11-05T19:04:34.752Z,99.30
2022-11-05T19:07:05.413Z,99.80
2022-11-05T19:09:37.345Z,99.90
2022-11-05T19:12:06.632Z,99.90
2022-11-05T19:14:34.830Z,99.90
2022-11-05T19:17:06.822Z,99.90
2022-11-05T19:19:34.314Z,99.90
2022-11-05T19:22:01.087Z,99.90
2022-11-05T19:24:28.057Z,99.90
2022-11-05T19:26:55.738Z,99.90
2022-11-05T19:29:22.794Z,99.90
2022-11-05T19:31:50.177Z,99.90
2022-11-05T19:34:17.009Z,99.90
2022-11-05T19:36:43.856Z,99.90
2022-11-05T19:39:16.967Z,99.90
2022-11-05T19:41:43.852Z,99.90
2022-11-05T19:44:10.974Z,99.90
2022-11-05T19:46:38.459Z,99.90
2022-11-05T19:49:05.229Z,99.90
2022-11-05T19:51:32.896Z,99.90
2022-11-05T19:54:01.672Z,99.90
2022-11-05T19:56:32.081Z,99.90
2022-11-05T19:58:59.968Z,99.90
2022-11-05T20:01:29.071Z,99.90
2022-11-05T20:03:57.517Z,99.90
2022-11-05T20:06:29.338Z,99.90
2022-11-05T20:11:49.368Z,99.90
2022-11-05T20:14:16.877Z,99.90
2022-11-05T20:16:44.965Z,99.90
2022-11-05T20:19:15.075Z,99.90
2022-11-05T20:21:42.091Z,99.90
2022-11-05T20:24:10.447Z,99.90
2022-11-05T20:26:37.434Z,99.90
2022-11-05T20:29:04.393Z,99.90
2022-11-05T20:31:31.195Z,99.90
2022-11-05T20:33:58.045Z,99.90
2022-11-05T20:36:26.249Z,99.90
2022-11-05T20:39:02.748Z,99.90
2022-11-05T20:41:30.691Z,99.90
2022-11-05T20:43:57.753Z,99.90
2022-11-05T20:46:25.005Z,99.90
2022-11-05T20:48:52.245Z,99.90
2022-11-05T20:51:21.705Z,99.90
2022-11-05T20:53:48.967Z,98.20
2022-11-05T20:56:25.011Z,99.90
2022-11-05T20:58:52.095Z,99.90
2022-11-05T21:01:19.737Z,99.90
2022-11-05T21:03:47.868Z,99.90
2022-11-05T21:06:15.499Z,99.90
2022-11-05T21:08:42.366Z,98.10
2022-11-05T21:11:10.292Z,95.40
2022-11-05T21:13:37.762Z,95.30
2022-11-05T21:16:06.663Z,95.30
2022-11-05T21:18:35.473Z,91.90
2022-11-05T21:21:10.628Z,97.20
2022-11-05T21:23:37.742Z,97.10
2022-11-05T21:26:06.646Z,92.20
2022-11-05T21:28:34.454Z,90.70
2022-11-05T21:31:02.550Z,93.00
2022-11-05T21:33:29.728Z,96.70
2022-11-05T21:35:56.760Z,91.00
2022-11-05T21:38:25.069Z,92.90
2022-11-05T21:40:51.900Z,91.60
2022-11-05T21:43:18.696Z,90.70
2022-11-05T21:45:45.456Z,91.10
2022-11-05T21:48:15.090Z,88.60
2022-11-05T21:51:00.929Z,90.70
2022-11-05T21:53:46.578Z,80.10
2022-11-05T21:56:41.376Z,79.30
2022-11-05T21:59:30.581Z,80.50
2022-11-05T22:02:01.546Z,81.90
2022-11-05T22:04:34.936Z,82.70
2022-11-05T22:07:02.659Z,79.10
2022-11-05T22:09:29.867Z,79.00
2022-11-05T22:11:56.782Z,78.90
2022-11-05T22:14:24.146Z,79.40
2022-11-05T22:16:51.304Z,78.50
2022-11-05T22:19:19.240Z,68.60
2022-11-05T22:21:46.329Z,67.90
2022-11-05T22:24:13.121Z,75.70
2022-11-05T22:26:40.174Z,73.30
2022-11-05T22:29:07.004Z,63.80
2022-11-05T22:31:36.551Z,68.40
2022-11-05T22:34:05.510Z,66.00
2022-11-05T22:36:34.085Z,58.30
2022-11-05T22:39:01.592Z,58.30
2022-11-05T22:41:28.505Z,57.50
2022-11-05T22:43:55.798Z,50.70
2022-11-05T22:46:24.131Z,53.00
2022-11-05T22:48:51.466Z,53.30
2022-11-05T22:51:23.854Z,51.60
2022-11-05T22:53:51.066Z,39.20
2022-11-05T22:56:20.855Z,44.70
2022-11-05T22:58:48.354Z,48.20
2022-11-05T23:01:16.111Z,44.70
2022-11-05T23:03:44.846Z,45.80
2022-11-05T23:06:36.857Z,49.90
2022-11-05T23:09:35.730Z,44.80
2022-11-05T23:12:04.501Z,49.30
2022-11-05T23:14:31.355Z,49.20
2022-11-05T23:17:16.752Z,44.70
2022-11-05T23:20:02.065Z,43.90
2022-11-05T23:22:49.044Z,43.80
2022-11-05T23:25:23.535Z,44.00
2022-11-05T23:27:52.342Z,46.20
2022-11-05T23:30:26.336Z,42.90
2022-11-05T23:32:53.795Z,47.10
2022-11-05T23:35:39.316Z,53.90
2022-11-05T23:38:24.826Z,48.70
2022-11-05T23:41:10.562Z,46.50
2022-11-05T23:43:56.018Z,51.90
2022-11-05T23:46:41.436Z,50.40
2022-11-05T23:49:08.400Z,61.60
2022-11-05T23:51:35.148Z,62.30
2022-11-05T23:54:01.903Z,54.10
2022-11-05T23:56:28.796Z,63.60
2022-11-05T23:58:55.520Z,62.50
